sim
Sign-in with your pilot id or email,
or register
Callsign
Passwort

Schedule Details

Flight Number: OEO7872
Departure: Dusseldorf International Airport (EDDL) at 07:20
Arrival: Fuerteventura Airport (GCFV) at 12:20

Weather Information
Getting current METAR information for EDDL 211750Z 01004KT CAVOK 22/09 Q1026 NOSIG
Getting current METAR information for GCFV 211800Z 01019KT CAVOK 26/18 Q1013

Schedule Frequency

Route Map